createdAt,value
2019-06-27T00:00:20.034Z,97170.00
2019-06-27T00:03:28.045Z,97177.00
2019-06-27T00:06:36.781Z,97164.00
2019-06-27T00:09:44.599Z,97175.00
2019-06-27T00:12:52.351Z,97158.00
2019-06-27T00:16:00.690Z,97167.00
2019-06-27T00:19:08.509Z,97169.00
2019-06-27T00:22:16.468Z,97160.00
2019-06-27T00:25:24.160Z,97159.00
2019-06-27T00:28:32.237Z,97148.00
2019-06-27T00:31:40.044Z,97157.00
2019-06-27T00:34:47.700Z,97144.00
2019-06-27T00:37:55.468Z,97147.00
2019-06-27T00:41:03.285Z,97153.00
2019-06-27T00:44:11.181Z,97142.00
2019-06-27T00:47:18.923Z,97146.00
2019-06-27T00:50:27.076Z,97135.00
2019-06-27T00:53:35.107Z,97136.00
2019-06-27T00:56:42.840Z,97145.00
2019-06-27T00:59:50.797Z,97142.00
2019-06-27T01:02:58.964Z,97151.00
2019-06-27T01:06:07.073Z,97134.00
2019-06-27T01:09:14.942Z,97143.00
2019-06-27T01:12:23.013Z,97142.00
2019-06-27T01:15:30.882Z,97142.00
2019-06-27T01:18:39.003Z,97147.00
2019-06-27T01:21:47.155Z,97156.00
2019-06-27T01:24:56.195Z,97136.00
2019-06-27T01:28:04.070Z,97148.00
2019-06-27T01:31:12.839Z,97139.00
2019-06-27T01:34:20.745Z,97151.00
2019-06-27T01:37:28.461Z,97140.00
2019-06-27T01:40:37.257Z,97149.00
2019-06-27T01:43:44.911Z,97147.00
2019-06-27T01:46:52.579Z,97152.00
2019-06-27T01:50:00.328Z,97148.00
2019-06-27T01:53:08.313Z,97152.00
2019-06-27T01:56:16.390Z,97143.00
2019-06-27T01:59:24.043Z,97153.00
2019-06-27T02:02:31.766Z,97152.00
2019-06-27T02:05:39.576Z,97148.00
2019-06-27T02:08:47.220Z,97157.00
2019-06-27T02:11:55.098Z,97153.00
2019-06-27T02:15:02.922Z,97156.00
2019-06-27T02:18:10.713Z,97157.00
2019-06-27T02:21:18.789Z,97153.00
2019-06-27T02:24:26.567Z,97163.00
2019-06-27T02:27:34.366Z,97153.00
2019-06-27T02:30:45.051Z,97157.00
2019-06-27T02:33:52.833Z,97151.00
2019-06-27T02:37:00.773Z,97149.00
2019-06-27T02:40:09.786Z,97152.00
2019-06-27T02:43:17.756Z,97149.00
2019-06-27T02:46:25.885Z,97154.00
2019-06-27T02:49:33.966Z,97160.00
2019-06-27T02:52:42.274Z,97153.00
2019-06-27T02:55:50.284Z,97146.00
2019-06-27T02:58:58.270Z,97152.00
2019-06-27T03:02:06.324Z,97152.00
2019-06-27T03:05:14.637Z,97167.00
2019-06-27T03:08:22.617Z,97177.00
2019-06-27T03:11:30.660Z,97184.00
2019-06-27T03:14:39.603Z,97175.00
2019-06-27T03:17:48.585Z,97171.00
2019-06-27T03:20:56.693Z,97176.00
2019-06-27T03:24:04.832Z,97163.00
2019-06-27T03:27:12.543Z,97180.00
2019-06-27T03:30:20.827Z,97161.00
2019-06-27T03:33:28.668Z,97160.00
2019-06-27T03:36:36.449Z,97155.00
2019-06-27T03:39:45.048Z,97146.00
2019-06-27T03:42:52.921Z,97150.00
2019-06-27T03:46:00.688Z,97151.00
2019-06-27T03:49:08.528Z,97137.00
2019-06-27T03:52:16.731Z,97132.00
2019-06-27T03:55:24.647Z,97139.00
2019-06-27T03:58:32.925Z,97141.00
2019-06-27T04:01:40.918Z,97134.00
2019-06-27T04:04:48.937Z,97132.00
2019-06-27T04:07:57.007Z,97139.00
2019-06-27T04:11:05.097Z,97142.00
2019-06-27T04:14:13.182Z,97129.00
2019-06-27T04:17:21.175Z,97129.00
2019-06-27T04:20:29.091Z,97135.00
2019-06-27T04:23:38.213Z,97140.00
2019-06-27T04:26:46.228Z,97124.00
2019-06-27T04:29:54.323Z,97124.00
2019-06-27T04:33:02.226Z,97143.00
2019-06-27T04:36:10.216Z,97136.00
2019-06-27T04:39:18.340Z,97137.00
2019-06-27T04:42:26.377Z,97142.00
2019-06-27T04:45:34.383Z,97140.00
2019-06-27T04:48:42.839Z,97151.00
2019-06-27T04:51:50.811Z,97139.00
2019-06-27T04:55:03.024Z,97157.00
2019-06-27T04:58:09.258Z,97152.00
2019-06-27T05:01:17.233Z,97151.00
2019-06-27T05:04:25.678Z,97156.00
2019-06-27T05:07:33.657Z,97144.00
2019-06-27T05:10:41.676Z,97152.00
2019-06-27T05:13:49.698Z,97153.00
2019-06-27T05:16:59.542Z,97137.00
2019-06-27T05:20:07.660Z,97138.00
2019-06-27T05:23:15.761Z,97147.00
2019-06-27T05:26:23.820Z,97141.00
2019-06-27T05:29:33.222Z,97136.00
2019-06-27T05:32:41.218Z,97137.00
2019-06-27T05:35:49.508Z,97130.00
2019-06-27T05:38:57.592Z,97139.00
2019-06-27T05:42:06.761Z,97142.00
2019-06-27T05:45:15.051Z,97137.00
2019-06-27T05:48:23.310Z,97149.00
2019-06-27T05:51:32.979Z,97147.00
2019-06-27T05:54:42.800Z,97144.00
2019-06-27T05:57:50.869Z,97141.00
2019-06-27T06:00:58.923Z,97145.00
2019-06-27T06:04:06.770Z,97140.00
2019-06-27T06:07:14.411Z,97141.00
2019-06-27T06:10:22.570Z,97148.00
2019-06-27T06:13:30.272Z,97143.00
2019-06-27T06:16:38.163Z,97139.00
2019-06-27T06:19:46.144Z,97143.00
2019-06-27T06:22:53.973Z,97147.00
2019-06-27T06:26:02.106Z,97136.00
2019-06-27T06:29:10.180Z,97153.00
2019-06-27T06:32:18.276Z,97157.00
2019-06-27T06:35:26.087Z,97150.00
2019-06-27T06:38:33.747Z,97146.00
2019-06-27T06:41:41.787Z,97145.00
2019-06-27T06:44:49.608Z,97140.00
2019-06-27T06:47:57.449Z,97143.00
2019-06-27T06:51:05.607Z,97146.00
2019-06-27T06:54:13.376Z,97144.00
2019-06-27T06:57:22.229Z,97139.00
2019-06-27T07:00:30.054Z,97141.00
2019-06-27T07:03:39.968Z,97150.00
2019-06-27T07:06:47.920Z,97155.00
2019-06-27T07:09:55.909Z,97159.00
2019-06-27T07:13:03.740Z,97150.00
2019-06-27T07:16:13.268Z,97158.00
2019-06-27T07:19:21.099Z,97165.00
2019-06-27T07:22:29.473Z,97165.00
2019-06-27T07:25:37.191Z,97156.00
2019-06-27T07:28:45.377Z,97153.00
2019-06-27T07:31:53.456Z,97163.00
2019-06-27T07:35:07.372Z,97185.00
2019-06-27T07:38:16.173Z,97184.00
2019-06-27T07:41:23.972Z,97171.00
2019-06-27T07:44:32.625Z,97164.00
2019-06-27T07:47:40.912Z,97176.00
2019-06-27T07:50:49.267Z,97183.00
2019-06-27T07:53:58.311Z,97170.00
2019-06-27T07:57:06.141Z,97177.00
2019-06-27T08:00:16.399Z,97178.00
2019-06-27T08:03:24.142Z,97178.00
2019-06-27T08:06:32.416Z,97167.00
2019-06-27T08:09:40.370Z,97176.00
2019-06-27T08:12:48.289Z,97183.00
2019-06-27T08:15:55.966Z,97179.00
2019-06-27T08:19:03.707Z,97181.00
2019-06-27T08:22:11.456Z,97181.00
2019-06-27T08:25:19.338Z,97185.00
2019-06-27T08:28:27.178Z,97178.00
2019-06-27T08:31:50.294Z,97184.00
2019-06-27T08:34:45.787Z,97184.00
2019-06-27T08:37:53.565Z,97177.00
2019-06-27T08:41:01.576Z,97173.00
2019-06-27T08:44:10.383Z,97174.00
2019-06-27T08:47:18.098Z,97177.00
2019-06-27T08:50:26.424Z,97183.00
2019-06-27T08:53:34.319Z,97176.00
2019-06-27T08:56:42.014Z,97191.00
2019-06-27T08:59:49.679Z,97189.00
2019-06-27T09:02:57.630Z,97193.00
2019-06-27T09:06:05.625Z,97190.00
2019-06-27T09:09:13.962Z,97192.00
2019-06-27T09:12:22.125Z,97196.00
2019-06-27T09:15:30.294Z,97200.00
2019-06-27T09:18:38.156Z,97202.00
2019-06-27T09:21:45.895Z,97214.00
2019-06-27T09:24:53.671Z,97215.00
2019-06-27T09:28:03.236Z,97204.00
2019-06-27T09:31:11.082Z,97213.00
2019-06-27T09:34:21.359Z,97206.00
2019-06-27T09:37:28.817Z,97202.00
2019-06-27T09:40:36.817Z,97200.00
2019-06-27T09:43:44.592Z,97209.00
2019-06-27T09:46:52.442Z,97211.00
2019-06-27T09:50:00.314Z,97202.00
2019-06-27T09:53:08.387Z,97209.00
2019-06-27T09:56:16.613Z,97213.00
2019-06-27T09:59:24.863Z,97209.00
2019-06-27T10:02:41.891Z,97214.00
2019-06-27T10:05:42.759Z,97202.00
2019-06-27T10:08:50.669Z,97215.00
2019-06-27T10:11:58.525Z,97209.00
2019-06-27T10:15:07.044Z,97207.00
2019-06-27T10:18:15.113Z,97195.00
2019-06-27T10:21:22.828Z,97201.00
2019-06-27T10:24:30.989Z,97201.00
2019-06-27T10:27:38.845Z,97195.00
2019-06-27T10:30:49.362Z,97190.00
2019-06-27T10:33:57.422Z,97186.00
2019-06-27T10:37:05.596Z,97187.00
2019-06-27T10:40:15.278Z,97186.00
2019-06-27T10:43:23.350Z,97179.00
2019-06-27T10:46:31.106Z,97183.00
2019-06-27T10:49:38.881Z,97174.00
2019-06-27T10:52:47.065Z,97170.00
2019-06-27T10:55:55.343Z,97181.00
2019-06-27T10:59:03.243Z,97171.00
2019-06-27T11:02:11.045Z,97176.00
2019-06-27T11:05:18.955Z,97169.00
2019-06-27T11:08:33.787Z,97170.00
2019-06-27T11:11:41.451Z,97167.00
2019-06-27T11:14:59.358Z,97163.00
2019-06-27T11:17:59.638Z,97172.00
2019-06-27T11:21:07.498Z,97156.00
2019-06-27T11:24:15.354Z,97150.00
2019-06-27T11:27:27.174Z,97154.00
2019-06-27T11:30:33.221Z,97143.00
2019-06-27T11:33:40.987Z,97154.00
2019-06-27T11:36:48.758Z,97139.00
2019-06-27T11:39:56.477Z,97144.00
2019-06-27T11:43:04.824Z,97139.00
2019-06-27T11:46:12.636Z,97141.00
2019-06-27T11:49:20.534Z,97146.00
2019-06-27T11:52:28.787Z,97133.00
2019-06-27T11:55:37.669Z,97132.00
2019-06-27T11:58:45.379Z,97131.00
2019-06-27T12:01:53.714Z,97125.00
2019-06-27T12:05:02.714Z,97117.00
2019-06-27T12:08:11.144Z,97124.00
2019-06-27T12:11:19.537Z,97126.00
2019-06-27T12:14:28.076Z,97117.00
2019-06-27T12:17:36.179Z,97118.00
2019-06-27T12:20:45.484Z,97116.00
2019-06-27T12:23:55.205Z,97123.00
2019-06-27T12:27:11.704Z,97114.00
2019-06-27T12:30:20.226Z,97119.00
2019-06-27T12:33:28.197Z,97112.00
2019-06-27T12:36:35.943Z,97106.00
2019-06-27T12:39:43.797Z,97100.00
2019-06-27T12:42:52.187Z,97099.00
2019-06-27T12:46:00.011Z,97104.00
2019-06-27T12:49:08.096Z,97095.00
2019-06-27T12:52:15.846Z,97100.00
2019-06-27T12:55:24.012Z,97092.00
2019-06-27T12:58:33.732Z,97105.00
2019-06-27T13:01:41.754Z,97092.00
2019-06-27T13:04:49.778Z,97079.00
2019-06-27T13:07:58.487Z,97092.00
2019-06-27T13:11:06.809Z,97078.00
2019-06-27T13:14:14.857Z,97085.00
2019-06-27T13:17:22.730Z,97080.00
2019-06-27T13:20:31.725Z,97076.00
2019-06-27T13:23:39.715Z,97077.00
2019-06-27T13:26:47.567Z,97068.00
2019-06-27T13:29:55.618Z,97060.00
2019-06-27T13:33:04.678Z,97060.00
2019-06-27T13:36:12.366Z,97062.00
2019-06-27T13:39:20.767Z,97057.00
2019-06-27T13:42:29.728Z,97067.00
2019-06-27T13:45:38.888Z,97061.00
2019-06-27T13:48:46.804Z,97042.00
2019-06-27T13:51:54.756Z,97047.00
2019-06-27T13:55:02.721Z,97042.00
2019-06-27T13:58:11.151Z,97040.00
2019-06-27T14:01:19.044Z,97032.00
2019-06-27T14:04:27.213Z,97024.00
2019-06-27T14:07:35.892Z,97032.00
2019-06-27T14:10:43.721Z,97020.00
2019-06-27T14:13:53.279Z,97029.00
2019-06-27T14:17:01.209Z,97016.00
2019-06-27T14:20:09.810Z,97027.00
2019-06-27T14:23:17.589Z,97015.00
2019-06-27T14:26:26.709Z,97016.00
2019-06-27T14:29:34.514Z,97008.00
2019-06-27T14:32:42.318Z,97016.00
2019-06-27T14:35:50.509Z,96987.00
2019-06-27T14:38:58.720Z,97005.00
2019-06-27T14:42:06.728Z,97007.00
2019-06-27T14:45:14.843Z,97008.00
2019-06-27T14:48:22.874Z,97006.00
2019-06-27T14:51:31.131Z,97001.00
2019-06-27T14:54:38.977Z,97002.00
2019-06-27T14:57:47.443Z,96992.00
2019-06-27T15:00:55.761Z,96992.00
2019-06-27T15:04:03.545Z,96987.00
2019-06-27T15:07:11.442Z,96996.00
2019-06-27T15:10:19.583Z,96981.00
2019-06-27T15:13:27.518Z,96983.00
2019-06-27T15:16:35.347Z,96977.00
2019-06-27T15:19:44.287Z,96977.00
2019-06-27T15:22:52.930Z,96982.00
2019-06-27T15:26:00.827Z,96982.00
2019-06-27T15:29:08.782Z,96977.00
2019-06-27T15:32:17.059Z,96961.00
2019-06-27T15:35:24.942Z,96967.00
2019-06-27T15:38:33.193Z,96972.00
2019-06-27T15:41:41.086Z,96972.00
2019-06-27T15:44:49.328Z,96975.00
2019-06-27T15:47:57.293Z,96961.00
2019-06-27T15:51:05.233Z,96971.00
2019-06-27T15:54:13.196Z,96967.00
2019-06-27T15:57:21.473Z,96965.00
2019-06-27T16:00:29.374Z,96962.00
2019-06-27T16:03:37.416Z,96967.00
2019-06-27T16:06:45.494Z,96952.00
2019-06-27T16:09:53.372Z,96955.00
2019-06-27T16:13:02.829Z,96961.00
2019-06-27T16:16:12.118Z,96958.00
2019-06-27T16:19:21.562Z,96956.00
2019-06-27T16:22:29.628Z,96956.00
2019-06-27T16:25:37.878Z,96953.00
2019-06-27T16:28:46.528Z,96960.00
2019-06-27T16:31:54.499Z,96955.00
2019-06-27T16:35:04.171Z,96953.00
2019-06-27T16:38:12.235Z,96962.00
2019-06-27T16:41:20.778Z,96961.00
2019-06-27T16:44:28.566Z,96959.00
2019-06-27T16:47:36.453Z,96961.00
2019-06-27T16:50:44.812Z,96955.00
2019-06-27T16:53:52.728Z,96952.00
2019-06-27T16:57:00.573Z,96958.00
2019-06-27T17:00:09.227Z,96966.00
2019-06-27T17:03:20.785Z,96956.00
2019-06-27T17:06:41.605Z,96964.00
2019-06-27T17:09:38.238Z,96968.00
2019-06-27T17:12:46.231Z,96969.00
2019-06-27T17:15:54.236Z,96974.00
2019-06-27T17:19:02.025Z,96974.00
2019-06-27T17:22:10.880Z,96974.00
2019-06-27T17:25:18.918Z,96979.00
2019-06-27T17:28:26.831Z,96969.00
2019-06-27T17:31:34.831Z,96979.00
2019-06-27T17:34:42.530Z,96985.00
2019-06-27T17:37:50.402Z,96982.00
2019-06-27T17:40:58.367Z,96978.00
2019-06-27T17:44:06.528Z,96982.00
2019-06-27T17:47:14.512Z,96979.00
2019-06-27T17:50:22.448Z,96982.00
2019-06-27T17:53:30.429Z,96984.00
2019-06-27T17:56:38.381Z,96989.00
2019-06-27T17:59:47.102Z,96986.00
2019-06-27T18:02:54.922Z,96997.00
2019-06-27T18:06:03.180Z,96991.00
2019-06-27T18:09:11.295Z,96990.00
2019-06-27T18:12:19.493Z,96987.00
2019-06-27T18:15:28.551Z,96992.00
2019-06-27T18:18:36.937Z,96992.00
2019-06-27T18:21:45.100Z,96992.00
2019-06-27T18:24:53.727Z,96984.00
2019-06-27T18:28:02.724Z,97004.00
2019-06-27T18:31:10.935Z,97007.00
2019-06-27T18:34:18.740Z,97000.00
2019-06-27T18:37:30.056Z,97001.00
2019-06-27T18:40:37.124Z,96989.00
2019-06-27T18:43:44.918Z,97003.00
2019-06-27T18:46:52.842Z,97007.00
2019-06-27T18:50:07.098Z,97009.00
2019-06-27T18:53:15.008Z,97000.00
2019-06-27T18:56:23.035Z,97003.00
2019-06-27T18:59:32.046Z,97013.00
2019-06-27T19:02:40.057Z,97010.00
2019-06-27T19:05:47.852Z,97011.00
2019-06-27T19:08:56.092Z,97011.00
2019-06-27T19:12:03.957Z,97024.00
2019-06-27T19:15:12.332Z,97031.00
2019-06-27T19:18:38.519Z,97034.00
2019-06-27T19:22:23.668Z,97039.00
2019-06-27T19:25:34.811Z,97049.00
2019-06-27T19:28:42.960Z,97055.00
2019-06-27T19:31:50.901Z,97057.00
2019-06-27T19:34:59.141Z,97060.00
2019-06-27T19:38:07.300Z,97054.00
2019-06-27T19:41:15.886Z,97069.00
2019-06-27T19:44:23.728Z,97068.00
2019-06-27T19:47:32.838Z,97078.00
2019-06-27T19:50:41.035Z,97079.00
2019-06-27T19:53:48.950Z,97085.00
2019-06-27T19:56:57.180Z,97096.00
2019-06-27T20:00:05.548Z,97099.00
2019-06-27T20:03:13.564Z,97084.00
2019-06-27T20:06:21.650Z,97097.00
2019-06-27T20:09:29.732Z,97090.00
2019-06-27T20:12:37.717Z,97101.00
2019-06-27T20:15:45.727Z,97109.00
2019-06-27T20:18:54.266Z,97106.00
2019-06-27T20:22:02.570Z,97110.00
2019-06-27T20:25:10.620Z,97109.00
2019-06-27T20:28:18.834Z,97111.00
2019-06-27T20:31:26.705Z,97103.00
2019-06-27T20:34:34.591Z,97096.00
2019-06-27T20:38:34.360Z,97111.00
2019-06-27T20:41:55.821Z,97111.00
2019-06-27T20:45:13.915Z,97116.00
2019-06-27T20:48:35.234Z,97111.00
2019-06-27T20:52:00.812Z,97131.00
2019-06-27T20:55:11.511Z,97127.00
2019-06-27T20:58:19.320Z,97120.00
2019-06-27T21:01:27.147Z,97134.00
2019-06-27T21:04:34.907Z,97129.00
2019-06-27T21:07:42.592Z,97129.00
2019-06-27T21:10:50.368Z,97141.00
2019-06-27T21:13:58.265Z,97131.00
2019-06-27T21:17:08.984Z,97136.00
2019-06-27T21:20:17.659Z,97137.00
2019-06-27T21:23:25.527Z,97142.00
2019-06-27T21:26:33.460Z,97130.00
2019-06-27T21:29:41.186Z,97136.00
2019-06-27T21:32:48.922Z,97146.00
2019-06-27T21:35:56.723Z,97139.00
2019-06-27T21:39:07.846Z,97135.00
2019-06-27T21:42:15.483Z,97145.00
2019-06-27T21:45:23.356Z,97159.00
2019-06-27T21:48:31.010Z,97153.00
2019-06-27T21:51:39.216Z,97152.00
2019-06-27T21:54:46.942Z,97153.00
2019-06-27T21:57:55.059Z,97149.00
2019-06-27T22:01:02.861Z,97153.00
2019-06-27T22:04:10.992Z,97145.00
2019-06-27T22:07:18.787Z,97159.00
2019-06-27T22:10:26.523Z,97145.00
2019-06-27T22:13:34.333Z,97168.00
2019-06-27T22:16:42.516Z,97169.00
2019-06-27T22:19:50.244Z,97157.00
2019-06-27T22:22:59.126Z,97175.00
2019-06-27T22:26:07.211Z,97162.00
2019-06-27T22:29:15.208Z,97169.00
2019-06-27T22:32:23.011Z,97154.00
2019-06-27T22:35:30.887Z,97161.00
2019-06-27T22:38:56.351Z,97157.00
2019-06-27T22:42:22.034Z,97158.00
2019-06-27T22:45:47.857Z,97153.00
2019-06-27T22:48:54.735Z,97157.00
2019-06-27T22:52:20.220Z,97168.00
2019-06-27T22:55:28.362Z,97151.00
2019-06-27T22:58:36.113Z,97154.00
2019-06-27T23:01:43.841Z,97157.00
2019-06-27T23:04:51.684Z,97150.00
2019-06-27T23:07:59.370Z,97155.00
2019-06-27T23:11:07.117Z,97154.00
2019-06-27T23:14:14.784Z,97146.00
2019-06-27T23:17:22.454Z,97154.00
2019-06-27T23:20:31.181Z,97159.00
2019-06-27T23:23:39.280Z,97155.00
2019-06-27T23:26:47.314Z,97153.00
2019-06-27T23:29:54.976Z,97153.00
2019-06-27T23:33:02.713Z,97163.00
2019-06-27T23:36:10.448Z,97167.00
2019-06-27T23:39:18.194Z,97177.00
2019-06-27T23:42:25.841Z,97155.00
2019-06-27T23:45:33.778Z,97171.00
2019-06-27T23:48:41.506Z,97169.00
2019-06-27T23:51:49.233Z,97168.00
2019-06-27T23:54:56.998Z,97159.00
2019-06-27T23:58:04.955Z,97164.00
